sensor_id;sensor_type;location;lat;lon;timestamp;temperature;humidity
20885;DHT22;10602;48.000;9.654;2023-04-03T00:23:19;2.50;99.90
20885;DHT22;10602;48.000;9.654;2023-04-03T00:25:46;2.50;99.90
20885;DHT22;10602;48.000;9.654;2023-04-03T00:28:14;2.50;99.90
20885;DHT22;10602;48.000;9.654;2023-04-03T00:30:41;2.50;99.90
20885;DHT22;10602;48.000;9.654;2023-04-03T00:33:11;2.50;99.90
20885;DHT22;10602;48.000;9.654;2023-04-03T00:35:40;2.50;99.90
20885;DHT22;10602;48.000;9.654;2023-04-03T00:38:08;2.50;99.90
20885;DHT22;10602;48.000;9.654;2023-04-03T00:40:38;2.50;99.90
20885;DHT22;10602;48.000;9.654;2023-04-03T00:43:15;2.50;99.90
20885;DHT22;10602;48.000;9.654;2023-04-03T00:45:41;2.40;99.90
20885;DHT22;10602;48.000;9.654;2023-04-03T00:48:15;2.40;99.90
20885;DHT22;10602;48.000;9.654;2023-04-03T00:50:41;2.30;99.90
20885;DHT22;10602;48.000;9.654;2023-04-03T00:53:12;2.20;99.90
20885;DHT22;10602;48.000;9.654;2023-04-03T00:55:40;2.20;99.90
20885;DHT22;10602;48.000;9.654;2023-04-03T00:58:09;2.10;99.90
20885;DHT22;10602;48.000;9.654;2023-04-03T01:00:40;2.10;99.90
20885;DHT22;10602;48.000;9.654;2023-04-03T01:03:08;2.10;99.90
20885;DHT22;10602;48.000;9.654;2023-04-03T01:05:35;2.00;99.90
20885;DHT22;10602;48.000;9.654;2023-04-03T01:08:03;2.10;99.90
20885;DHT22;10602;48.000;9.654;2023-04-03T01:10:31;2.00;99.90
20885;DHT22;10602;48.000;9.654;2023-04-03T01:13:00;2.00;99.90
20885;DHT22;10602;48.000;9.654;2023-04-03T01:15:28;2.00;99.90
20885;DHT22;10602;48.000;9.654;2023-04-03T01:17:58;2.00;93.30
20885;DHT22;10602;48.000;9.654;2023-04-03T01:25:47;1.90;92.20
20885;DHT22;10602;48.000;9.654;2023-04-03T01:28:24;1.90;92.80
20885;DHT22;10602;48.000;9.654;2023-04-03T01:31:05;1.90;93.80
20885;DHT22;10602;48.000;9.654;2023-04-03T01:33:31;1.90;94.90
20885;DHT22;10602;48.000;9.654;2023-04-03T01:35:59;1.90;97.20
20885;DHT22;10602;48.000;9.654;2023-04-03T01:38:27;1.90;95.70
20885;DHT22;10602;48.000;9.654;2023-04-03T01:40:54;2.00;97.30
20885;DHT22;10602;48.000;9.654;2023-04-03T01:43:22;2.00;85.00
20885;DHT22;10602;48.000;9.654;2023-04-03T01:45:49;1.90;79.40
20885;DHT22;10602;48.000;9.654;2023-04-03T01:48:19;1.90;90.40
20885;DHT22;10602;48.000;9.654;2023-04-03T01:50:46;1.90;66.20
20885;DHT22;10602;48.000;9.654;2023-04-03T01:53:14;1.90;51.40
20885;DHT22;10602;48.000;9.654;2023-04-03T01:55:41;1.90;1.00
20885;DHT22;10602;48.000;9.654;2023-04-03T01:58:09;1.80;9.10
20885;DHT22;10602;48.000;9.654;2023-04-03T02:00:36;1.80;1.00
20885;DHT22;10602;48.000;9.654;2023-04-03T02:03:04;1.80;4.10
20885;DHT22;10602;48.000;9.654;2023-04-03T02:05:32;1.70;1.00
20885;DHT22;10602;48.000;9.654;2023-04-03T02:07:59;1.70;1.00
20885;DHT22;10602;48.000;9.654;2023-04-03T02:10:27;1.70;1.00
20885;DHT22;10602;48.000;9.654;2023-04-03T02:12:54;1.60;1.00
20885;DHT22;10602;48.000;9.654;2023-04-03T02:15:22;1.70;1.00
20885;DHT22;10602;48.000;9.654;2023-04-03T02:17:49;1.60;1.00
20885;DHT22;10602;48.000;9.654;2023-04-03T02:20:17;1.70;1.00
20885;DHT22;10602;48.000;9.654;2023-04-03T02:22:44;1.60;1.00
20885;DHT22;10602;48.000;9.654;2023-04-03T02:25:12;1.60;1.00
20885;DHT22;10602;48.000;9.654;2023-04-03T02:27:40;1.70;1.00
20885;DHT22;10602;48.000;9.654;2023-04-03T02:30:07;1.60;1.00
20885;DHT22;10602;48.000;9.654;2023-04-03T02:32:37;1.60;1.00
20885;DHT22;10602;48.000;9.654;2023-04-03T02:35:04;1.60;1.00
20885;DHT22;10602;48.000;9.654;2023-04-03T02:37:32;1.50;1.00
20885;DHT22;10602;48.000;9.654;2023-04-03T02:40:00;1.60;1.00
20885;DHT22;10602;48.000;9.654;2023-04-03T02:42:27;1.50;1.00
20885;DHT22;10602;48.000;9.654;2023-04-03T02:44:55;1.50;1.00
20885;DHT22;10602;48.000;9.654;2023-04-03T02:47:24;1.60;1.00
20885;DHT22;10602;48.000;9.654;2023-04-03T02:49:51;1.60;1.00
20885;DHT22;10602;48.000;9.654;2023-04-03T02:52:19;1.60;1.00
20885;DHT22;10602;48.000;9.654;2023-04-03T02:54:47;1.60;1.00
20885;DHT22;10602;48.000;9.654;2023-04-03T02:57:15;1.60;1.00
20885;DHT22;10602;48.000;9.654;2023-04-03T02:59:46;1.50;1.00
20885;DHT22;10602;48.000;9.654;2023-04-03T03:02:13;1.50;1.00
20885;DHT22;10602;48.000;9.654;2023-04-03T03:04:41;1.60;1.00
20885;DHT22;10602;48.000;9.654;2023-04-03T03:07:09;1.60;1.00
20885;DHT22;10602;48.000;9.654;2023-04-03T03:09:37;1.60;1.00
20885;DHT22;10602;48.000;9.654;2023-04-03T03:12:04;1.60;1.00
20885;DHT22;10602;48.000;9.654;2023-04-03T03:14:32;1.60;1.00
20885;DHT22;10602;48.000;9.654;2023-04-03T03:16:59;1.60;1.00
20885;DHT22;10602;48.000;9.654;2023-04-03T03:19:27;1.60;1.00
20885;DHT22;10602;48.000;9.654;2023-04-03T03:21:54;1.60;1.00
20885;DHT22;10602;48.000;9.654;2023-04-03T03:24:23;1.60;1.00
20885;DHT22;10602;48.000;9.654;2023-04-03T03:26:50;1.70;1.00
20885;DHT22;10602;48.000;9.654;2023-04-03T03:29:18;1.70;1.00
20885;DHT22;10602;48.000;9.654;2023-04-03T03:31:45;1.70;1.00
20885;DHT22;10602;48.000;9.654;2023-04-03T03:34:13;1.70;1.00
20885;DHT22;10602;48.000;9.654;2023-04-03T03:36:42;1.70;1.00
20885;DHT22;10602;48.000;9.654;2023-04-03T03:39:10;1.70;1.00
20885;DHT22;10602;48.000;9.654;2023-04-03T03:41:37;1.70;1.00
20885;DHT22;10602;48.000;9.654;2023-04-03T03:44:05;1.70;1.00
20885;DHT22;10602;48.000;9.654;2023-04-03T03:46:32;1.70;1.00
20885;DHT22;10602;48.000;9.654;2023-04-03T03:49:00;1.70;1.00
20885;DHT22;10602;48.000;9.654;2023-04-03T03:51:27;1.70;1.00
20885;DHT22;10602;48.000;9.654;2023-04-03T03:53:55;1.70;1.00
20885;DHT22;10602;48.000;9.654;2023-04-03T03:56:22;1.70;1.00
20885;DHT22;10602;48.000;9.654;2023-04-03T03:58:50;1.70;1.00
20885;DHT22;10602;48.000;9.654;2023-04-03T04:01:18;1.70;1.00
20885;DHT22;10602;48.000;9.654;2023-04-03T04:03:46;1.60;1.00
20885;DHT22;10602;48.000;9.654;2023-04-03T04:06:14;1.60;1.00
20885;DHT22;10602;48.000;9.654;2023-04-03T04:08:42;1.60;1.00
20885;DHT22;10602;48.000;9.654;2023-04-03T04:11:09;1.60;1.00
20885;DHT22;10602;48.000;9.654;2023-04-03T04:13:37;1.50;1.00
20885;DHT22;10602;48.000;9.654;2023-04-03T04:16:05;1.50;1.00
20885;DHT22;10602;48.000;9.654;2023-04-03T04:18:33;1.50;1.00
20885;DHT22;10602;48.000;9.654;2023-04-03T04:21:00;1.50;1.00
20885;DHT22;10602;48.000;9.654;2023-04-03T04:23:28;1.50;1.00
20885;DHT22;10602;48.000;9.654;2023-04-03T04:25:55;1.60;1.00
20885;DHT22;10602;48.000;9.654;2023-04-03T04:28:23;1.50;1.00
20885;DHT22;10602;48.000;9.654;2023-04-03T04:30:50;1.50;1.00
20885;DHT22;10602;48.000;9.654;2023-04-03T04:33:18;1.50;1.00
20885;DHT22;10602;48.000;9.654;2023-04-03T04:35:47;1.50;1.00
20885;DHT22;10602;48.000;9.654;2023-04-03T04:38:15;1.50;1.00
20885;DHT22;10602;48.000;9.654;2023-04-03T04:40:42;1.50;1.00
20885;DHT22;10602;48.000;9.654;2023-04-03T04:43:10;1.60;1.00
20885;DHT22;10602;48.000;9.654;2023-04-03T04:45:39;1.50;1.00
20885;DHT22;10602;48.000;9.654;2023-04-03T04:48:07;1.50;1.00
20885;DHT22;10602;48.000;9.654;2023-04-03T04:50:34;1.60;1.00
20885;DHT22;10602;48.000;9.654;2023-04-03T04:53:02;1.60;1.00
20885;DHT22;10602;48.000;9.654;2023-04-03T04:55:30;1.60;1.00
20885;DHT22;10602;48.000;9.654;2023-04-03T04:57:58;1.60;1.00
20885;DHT22;10602;48.000;9.654;2023-04-03T05:00:25;1.60;1.00
20885;DHT22;10602;48.000;9.654;2023-04-03T05:02:54;1.60;1.00
20885;DHT22;10602;48.000;9.654;2023-04-03T05:05:21;1.60;1.00
20885;DHT22;10602;48.000;9.654;2023-04-03T05:07:49;1.60;1.00
20885;DHT22;10602;48.000;9.654;2023-04-03T05:10:17;1.60;1.00
20885;DHT22;10602;48.000;9.654;2023-04-03T05:12:44;1.60;1.00
20885;DHT22;10602;48.000;9.654;2023-04-03T05:15:14;1.60;1.00
20885;DHT22;10602;48.000;9.654;2023-04-03T05:17:42;1.60;1.00
20885;DHT22;10602;48.000;9.654;2023-04-03T05:20:10;1.60;1.00
20885;DHT22;10602;48.000;9.654;2023-04-03T05:22:37;1.60;1.00
20885;DHT22;10602;48.000;9.654;2023-04-03T05:25:05;1.60;1.00
20885;DHT22;10602;48.000;9.654;2023-04-03T05:27:33;1.60;1.00
20885;DHT22;10602;48.000;9.654;2023-04-03T05:30:01;1.70;1.00
20885;DHT22;10602;48.000;9.654;2023-04-03T05:32:29;1.70;1.00
20885;DHT22;10602;48.000;9.654;2023-04-03T05:34:56;1.70;1.00
20885;DHT22;10602;48.000;9.654;2023-04-03T05:37:24;1.70;1.00
20885;DHT22;10602;48.000;9.654;2023-04-03T05:39:51;1.70;99.90
20885;DHT22;10602;48.000;9.654;2023-04-03T05:42:19;1.60;1.00
20885;DHT22;10602;48.000;9.654;2023-04-03T05:44:46;1.70;1.00
20885;DHT22;10602;48.000;9.654;2023-04-03T05:47:15;1.70;99.90
20885;DHT22;10602;48.000;9.654;2023-04-03T05:49:42;1.70;99.90
20885;DHT22;10602;48.000;9.654;2023-04-03T05:52:36;1.70;99.90
20885;DHT22;10602;48.000;9.654;2023-04-03T05:55:00;1.80;1.00
20885;DHT22;10602;48.000;9.654;2023-04-03T05:57:27;1.80;99.90
20885;DHT22;10602;48.000;9.654;2023-04-03T05:59:55;1.70;99.90
20885;DHT22;10602;48.000;9.654;2023-04-03T06:02:24;1.80;99.90
20885;DHT22;10602;48.000;9.654;2023-04-03T06:04:53;1.80;99.90
20885;DHT22;10602;48.000;9.654;2023-04-03T06:07:22;1.80;99.90
20885;DHT22;10602;48.000;9.654;2023-04-03T06:09:52;1.80;1.00
20885;DHT22;10602;48.000;9.654;2023-04-03T06:12:20;1.80;99.90
20885;DHT22;10602;48.000;9.654;2023-04-03T06:14:47;1.80;99.90
20885;DHT22;10602;48.000;9.654;2023-04-03T06:17:17;1.90;1.00
20885;DHT22;10602;48.000;9.654;2023-04-03T06:20:04;1.90;1.00
20885;DHT22;10602;48.000;9.654;2023-04-03T06:22:35;1.90;1.00
20885;DHT22;10602;48.000;9.654;2023-04-03T06:25:03;1.90;1.00
20885;DHT22;10602;48.000;9.654;2023-04-03T06:30:37;1.90;1.00
20885;DHT22;10602;48.000;9.654;2023-04-03T06:33:10;1.90;1.00
20885;DHT22;10602;48.000;9.654;2023-04-03T06:35:38;1.90;1.00
20885;DHT22;10602;48.000;9.654;2023-04-03T06:38:05;2.00;1.00
20885;DHT22;10602;48.000;9.654;2023-04-03T06:40:37;2.00;1.00
20885;DHT22;10602;48.000;9.654;2023-04-03T06:43:04;2.00;1.00
20885;DHT22;10602;48.000;9.654;2023-04-03T06:45:39;2.10;1.00
20885;DHT22;10602;48.000;9.654;2023-04-03T06:48:06;2.10;1.00
20885;DHT22;10602;48.000;9.654;2023-04-03T06:50:39;2.10;1.00
20885;DHT22;10602;48.000;9.654;2023-04-03T06:53:09;2.20;1.00
20885;DHT22;10602;48.000;9.654;2023-04-03T06:55:36;2.10;1.00
20885;DHT22;10602;48.000;9.654;2023-04-03T06:58:05;2.20;1.00
20885;DHT22;10602;48.000;9.654;2023-04-03T07:00:33;2.20;1.00
20885;DHT22;10602;48.000;9.654;2023-04-03T07:03:02;2.20;1.00
20885;DHT22;10602;48.000;9.654;2023-04-03T07:05:30;2.30;1.00
20885;DHT22;10602;48.000;9.654;2023-04-03T07:08:03;2.30;1.00
20885;DHT22;10602;48.000;9.654;2023-04-03T07:10:42;2.40;1.00
20885;DHT22;10602;48.000;9.654;2023-04-03T07:13:10;2.50;1.00
20885;DHT22;10602;48.000;9.654;2023-04-03T07:15:37;2.50;1.00
20885;DHT22;10602;48.000;9.654;2023-04-03T07:18:05;2.50;1.00
20885;DHT22;10602;48.000;9.654;2023-04-03T07:20:32;2.60;1.00
20885;DHT22;10602;48.000;9.654;2023-04-03T07:23:00;2.70;1.00
20885;DHT22;10602;48.000;9.654;2023-04-03T07:25:28;2.70;1.00
20885;DHT22;10602;48.000;9.654;2023-04-03T07:27:56;2.80;99.90
20885;DHT22;10602;48.000;9.654;2023-04-03T07:30:24;2.90;99.90
20885;DHT22;10602;48.000;9.654;2023-04-03T07:32:52;3.00;1.00
20885;DHT22;10602;48.000;9.654;2023-04-03T07:35:20;3.00;92.60
20885;DHT22;10602;48.000;9.654;2023-04-03T07:37:47;3.10;1.00
20885;DHT22;10602;48.000;9.654;2023-04-03T07:40:19;3.10;99.90
20885;DHT22;10602;48.000;9.654;2023-04-03T07:42:47;3.10;1.00
20885;DHT22;10602;48.000;9.654;2023-04-03T07:45:15;3.20;1.00
20885;DHT22;10602;48.000;9.654;2023-04-03T07:47:43;3.20;1.00
20885;DHT22;10602;48.000;9.654;2023-04-03T07:50:11;3.10;10.80
20885;DHT22;10602;48.000;9.654;2023-04-03T07:52:39;3.00;1.00
20885;DHT22;10602;48.000;9.654;2023-04-03T07:55:07;3.00;99.90
20885;DHT22;10602;48.000;9.654;2023-04-03T07:57:34;3.10;42.50
20885;DHT22;10602;48.000;9.654;2023-04-03T08:00:04;3.10;1.00
20885;DHT22;10602;48.000;9.654;2023-04-03T08:02:31;3.00;1.00
20885;DHT22;10602;48.000;9.654;2023-04-03T08:04:59;3.10;99.90
20885;DHT22;10602;48.000;9.654;2023-04-03T08:07:27;3.20;99.90
20885;DHT22;10602;48.000;9.654;2023-04-03T08:09:57;3.30;1.00
20885;DHT22;10602;48.000;9.654;2023-04-03T08:12:25;3.30;99.90
20885;DHT22;10602;48.000;9.654;2023-04-03T08:14:54;3.30;99.90
20885;DHT22;10602;48.000;9.654;2023-04-03T08:17:25;3.30;1.00
20885;DHT22;10602;48.000;9.654;2023-04-03T08:19:52;3.30;1.00
20885;DHT22;10602;48.000;9.654;2023-04-03T08:22:20;3.30;99.90
20885;DHT22;10602;48.000;9.654;2023-04-03T08:24:47;3.30;99.90
20885;DHT22;10602;48.000;9.654;2023-04-03T08:27:15;3.20;1.00
20885;DHT22;10602;48.000;9.654;2023-04-03T08:29:42;3.30;99.90
20885;DHT22;10602;48.000;9.654;2023-04-03T08:32:11;3.40;1.00
20885;DHT22;10602;48.000;9.654;2023-04-03T08:34:38;3.40;51.40
20885;DHT22;10602;48.000;9.654;2023-04-03T08:37:06;3.60;99.90
20885;DHT22;10602;48.000;9.654;2023-04-03T08:39:35;3.40;99.90
20885;DHT22;10602;48.000;9.654;2023-04-03T08:42:14;3.40;1.00
20885;DHT22;10602;48.000;9.654;2023-04-03T08:44:55;3.50;1.00
20885;DHT22;10602;48.000;9.654;2023-04-03T08:47:33;3.80;1.00
20885;DHT22;10602;48.000;9.654;2023-04-03T08:50:01;3.80;1.00
20885;DHT22;10602;48.000;9.654;2023-04-03T08:58:23;3.80;99.90
20885;DHT22;10602;48.000;9.654;2023-04-03T09:01:05;3.80;99.90
20885;DHT22;10602;48.000;9.654;2023-04-03T09:03:36;3.90;98.20
20885;DHT22;10602;48.000;9.654;2023-04-03T09:06:15;3.90;1.00
20885;DHT22;10602;48.000;9.654;2023-04-03T09:17:30;4.30;1.00
20885;DHT22;10602;48.000;9.654;2023-04-03T09:22:41;4.60;99.90
20885;DHT22;10602;48.000;9.654;2023-04-03T09:26:18;4.80;99.90
20885;DHT22;10602;48.000;9.654;2023-04-03T09:27:55;4.90;1.00
20885;DHT22;10602;48.000;9.654;2023-04-03T09:30:25;5.10;1.00
20885;DHT22;10602;48.000;9.654;2023-04-03T09:32:55;5.20;1.00
20885;DHT22;10602;48.000;9.654;2023-04-03T09:35:36;5.20;1.00
20885;DHT22;10602;48.000;9.654;2023-04-03T09:38:14;5.20;1.00
20885;DHT22;10602;48.000;9.654;2023-04-03T09:40:33;5.30;99.90
20885;DHT22;10602;48.000;9.654;2023-04-03T09:43:19;5.60;99.90
20885;DHT22;10602;48.000;9.654;2023-04-03T09:45:34;5.70;1.00
20885;DHT22;10602;48.000;9.654;2023-04-03T09:48:18;5.70;1.00
20885;DHT22;10602;48.000;9.654;2023-04-03T09:50:59;5.70;1.00
20885;DHT22;10602;48.000;9.654;2023-04-03T09:53:35;5.60;1.00
20885;DHT22;10602;48.000;9.654;2023-04-03T09:59:36;5.80;1.00
20885;DHT22;10602;48.000;9.654;2023-04-03T10:01:29;5.90;1.00
20885;DHT22;10602;48.000;9.654;2023-04-03T10:04:11;6.00;1.00
20885;DHT22;10602;48.000;9.654;2023-04-03T10:06:41;6.40;99.90
20885;DHT22;10602;48.000;9.654;2023-04-03T10:09:28;6.60;99.90
20885;DHT22;10602;48.000;9.654;2023-04-03T10:12:12;6.50;99.90
20885;DHT22;10602;48.000;9.654;2023-04-03T10:15:00;6.20;9.90
20885;DHT22;10602;48.000;9.654;2023-04-03T10:20:09;5.40;99.90
20885;DHT22;10602;48.000;9.654;2023-04-03T10:33:47;5.20;99.90
20885;DHT22;10602;48.000;9.654;2023-04-03T10:36:19;5.30;99.90
20885;DHT22;10602;48.000;9.654;2023-04-03T10:39:02;5.40;99.90
20885;DHT22;10602;48.000;9.654;2023-04-03T10:41:34;5.40;99.90
20885;DHT22;10602;48.000;9.654;2023-04-03T10:47:25;5.80;88.40
20885;DHT22;10602;48.000;9.654;2023-04-03T10:52:53;6.90;1.00
20885;DHT22;10602;48.000;9.654;2023-04-03T10:58:15;7.20;1.00
20885;DHT22;10602;48.000;9.654;2023-04-03T11:00:45;7.00;1.00
20885;DHT22;10602;48.000;9.654;2023-04-03T11:03:29;7.00;1.00
20885;DHT22;10602;48.000;9.654;2023-04-03T11:05:59;7.10;1.00
20885;DHT22;10602;48.000;9.654;2023-04-03T11:08:38;7.20;1.00
20885;DHT22;10602;48.000;9.654;2023-04-03T11:11:09;7.30;1.00
20885;DHT22;10602;48.000;9.654;2023-04-03T11:13:58;7.20;1.00
20885;DHT22;10602;48.000;9.654;2023-04-03T11:16:27;6.90;1.00
20885;DHT22;10602;48.000;9.654;2023-04-03T11:19:20;6.90;1.00
20885;DHT22;10602;48.000;9.654;2023-04-03T11:21:52;6.70;1.00
20885;DHT22;10602;48.000;9.654;2023-04-03T11:24:24;6.40;1.00
20885;DHT22;10602;48.000;9.654;2023-04-03T11:26:55;6.20;1.00
20885;DHT22;10602;48.000;9.654;2023-04-03T11:29:27;6.10;1.00
20885;DHT22;10602;48.000;9.654;2023-04-03T11:32:38;6.10;1.00
20885;DHT22;10602;48.000;9.654;2023-04-03T11:34:44;6.00;1.00
20885;DHT22;10602;48.000;9.654;2023-04-03T11:38:13;6.10;1.00
20885;DHT22;10602;48.000;9.654;2023-04-03T11:40:07;6.20;1.00
20885;DHT22;10602;48.000;9.654;2023-04-03T11:42:39;6.40;1.00
20885;DHT22;10602;48.000;9.654;2023-04-03T11:45:27;6.60;1.00
20885;DHT22;10602;48.000;9.654;2023-04-03T11:48:02;6.80;1.00
20885;DHT22;10602;48.000;9.654;2023-04-03T11:50:42;7.20;1.00
20885;DHT22;10602;48.000;9.654;2023-04-03T11:58:28;9.50;1.00
20885;DHT22;10602;48.000;9.654;2023-04-03T12:01:02;9.10;1.00
20885;DHT22;10602;48.000;9.654;2023-04-03T12:03:55;8.10;1.00
20885;DHT22;10602;48.000;9.654;2023-04-03T12:11:14;6.70;1.00
20885;DHT22;10602;48.000;9.654;2023-04-03T12:16:27;6.40;1.00
20885;DHT22;10602;48.000;9.654;2023-04-03T12:27:02;6.40;1.00
20885;DHT22;10602;48.000;9.654;2023-04-03T12:29:39;6.60;1.00
20885;DHT22;10602;48.000;9.654;2023-04-03T12:35:37;7.30;1.00
20885;DHT22;10602;48.000;9.654;2023-04-03T12:46:49;7.90;1.00
20885;DHT22;10602;48.000;9.654;2023-04-03T12:49:35;7.80;1.00
20885;DHT22;10602;48.000;9.654;2023-04-03T12:52:17;7.80;1.00
20885;DHT22;10602;48.000;9.654;2023-04-03T12:54:36;7.20;1.00
20885;DHT22;10602;48.000;9.654;2023-04-03T12:57:10;7.00;1.00
20885;DHT22;10602;48.000;9.654;2023-04-03T12:59:38;6.80;1.00
20885;DHT22;10602;48.000;9.654;2023-04-03T13:02:24;6.60;1.00
20885;DHT22;10602;48.000;9.654;2023-04-03T13:04:53;6.80;1.00
20885;DHT22;10602;48.000;9.654;2023-04-03T13:07:34;7.00;1.00
20885;DHT22;10602;48.000;9.654;2023-04-03T13:10:03;7.00;1.00
20885;DHT22;10602;48.000;9.654;2023-04-03T13:12:31;7.10;1.00
20885;DHT22;10602;48.000;9.654;2023-04-03T13:15:10;7.40;1.00
20885;DHT22;10602;48.000;9.654;2023-04-03T13:17:31;7.50;1.00
20885;DHT22;10602;48.000;9.654;2023-04-03T13:20:09;7.60;1.00
20885;DHT22;10602;48.000;9.654;2023-04-03T13:22:49;7.40;1.00
20885;DHT22;10602;48.000;9.654;2023-04-03T13:25:15;7.40;1.00
20885;DHT22;10602;48.000;9.654;2023-04-03T13:27:43;7.10;1.00
20885;DHT22;10602;48.000;9.654;2023-04-03T13:32:55;6.80;1.00
20885;DHT22;10602;48.000;9.654;2023-04-03T13:35:33;6.90;1.00
20885;DHT22;10602;48.000;9.654;2023-04-03T13:37:59;6.70;1.00
20885;DHT22;10602;48.000;9.654;2023-04-03T13:40:27;6.70;1.00
20885;DHT22;10602;48.000;9.654;2023-04-03T13:43:14;6.90;1.00
20885;DHT22;10602;48.000;9.654;2023-04-03T13:45:34;6.80;1.00
20885;DHT22;10602;48.000;9.654;2023-04-03T13:48:14;6.80;1.00
20885;DHT22;10602;48.000;9.654;2023-04-03T13:50:54;6.70;1.00
20885;DHT22;10602;48.000;9.654;2023-04-03T13:53:24;6.60;1.00
20885;DHT22;10602;48.000;9.654;2023-04-03T13:58:27;6.40;1.00
20885;DHT22;10602;48.000;9.654;2023-04-03T14:03:51;6.20;1.00
20885;DHT22;10602;48.000;9.654;2023-04-03T14:06:16;6.10;1.00
20885;DHT22;10602;48.000;9.654;2023-04-03T14:08:45;6.00;1.00
20885;DHT22;10602;48.000;9.654;2023-04-03T14:11:26;5.70;1.00
20885;DHT22;10602;48.000;9.654;2023-04-03T14:14:05;5.50;1.00
20885;DHT22;10602;48.000;9.654;2023-04-03T14:16:36;5.50;1.00
20885;DHT22;10602;48.000;9.654;2023-04-03T14:19:09;5.60;1.00
20885;DHT22;10602;48.000;9.654;2023-04-03T14:21:37;5.60;1.00
20885;DHT22;10602;48.000;9.654;2023-04-03T14:24:06;5.60;1.00
20885;DHT22;10602;48.000;9.654;2023-04-03T14:26:35;5.60;1.00
20885;DHT22;10602;48.000;9.654;2023-04-03T14:29:03;5.60;1.00
20885;DHT22;10602;48.000;9.654;2023-04-03T14:31:30;5.70;1.00
20885;DHT22;10602;48.000;9.654;2023-04-03T14:34:00;5.70;1.00
20885;DHT22;10602;48.000;9.654;2023-04-03T14:36:29;5.90;1.00
20885;DHT22;10602;48.000;9.654;2023-04-03T14:38:59;6.10;1.00
20885;DHT22;10602;48.000;9.654;2023-04-03T14:41:27;6.10;1.00
20885;DHT22;10602;48.000;9.654;2023-04-03T14:43:55;6.10;1.00
20885;DHT22;10602;48.000;9.654;2023-04-03T14:46:30;6.30;1.00
20885;DHT22;10602;48.000;9.654;2023-04-03T14:48:58;6.20;1.00
20885;DHT22;10602;48.000;9.654;2023-04-03T14:51:26;6.10;1.00
20885;DHT22;10602;48.000;9.654;2023-04-03T14:53:53;6.10;1.00
20885;DHT22;10602;48.000;9.654;2023-04-03T14:56:25;6.00;1.00
20885;DHT22;10602;48.000;9.654;2023-04-03T14:59:00;6.00;1.00
20885;DHT22;10602;48.000;9.654;2023-04-03T15:01:28;5.90;1.00
20885;DHT22;10602;48.000;9.654;2023-04-03T15:03:55;5.80;1.00
20885;DHT22;10602;48.000;9.654;2023-04-03T15:06:24;5.50;1.00
20885;DHT22;10602;48.000;9.654;2023-04-03T15:08:52;5.40;1.00
20885;DHT22;10602;48.000;9.654;2023-04-03T15:11:20;5.40;1.00
20885;DHT22;10602;48.000;9.654;2023-04-03T15:13:47;5.40;1.00
20885;DHT22;10602;48.000;9.654;2023-04-03T15:16:18;5.10;1.00
20885;DHT22;10602;48.000;9.654;2023-04-03T15:18:47;5.00;11.30
20885;DHT22;10602;48.000;9.654;2023-04-03T15:21:15;5.10;63.20
20885;DHT22;10602;48.000;9.654;2023-04-03T15:23:43;5.10;1.00
20885;DHT22;10602;48.000;9.654;2023-04-03T15:26:10;5.10;1.00
20885;DHT22;10602;48.000;9.654;2023-04-03T15:28:39;5.10;1.00
20885;DHT22;10602;48.000;9.654;2023-04-03T15:31:08;5.20;1.00
20885;DHT22;10602;48.000;9.654;2023-04-03T15:33:36;5.30;1.00
20885;DHT22;10602;48.000;9.654;2023-04-03T15:36:04;5.30;1.00
20885;DHT22;10602;48.000;9.654;2023-04-03T15:38:32;5.40;1.00
20885;DHT22;10602;48.000;9.654;2023-04-03T15:40:59;5.50;1.00
20885;DHT22;10602;48.000;9.654;2023-04-03T15:43:27;5.60;1.00
20885;DHT22;10602;48.000;9.654;2023-04-03T15:45:56;5.70;1.00
20885;DHT22;10602;48.000;9.654;2023-04-03T15:48:26;5.70;1.00
20885;DHT22;10602;48.000;9.654;2023-04-03T15:50:54;5.60;1.00
20885;DHT22;10602;48.000;9.654;2023-04-03T15:53:22;5.40;1.00
20885;DHT22;10602;48.000;9.654;2023-04-03T15:55:49;5.30;1.00
20885;DHT22;10602;48.000;9.654;2023-04-03T15:58:17;5.20;1.00
20885;DHT22;10602;48.000;9.654;2023-04-03T16:00:44;5.00;1.00
20885;DHT22;10602;48.000;9.654;2023-04-03T16:03:17;4.90;1.00
20885;DHT22;10602;48.000;9.654;2023-04-03T16:05:45;4.90;9.10
20885;DHT22;10602;48.000;9.654;2023-04-03T16:08:13;4.90;52.70
20885;DHT22;10602;48.000;9.654;2023-04-03T16:10:41;5.00;1.00
20885;DHT22;10602;48.000;9.654;2023-04-03T16:13:08;5.00;1.00
20885;DHT22;10602;48.000;9.654;2023-04-03T16:15:36;5.10;1.00
20885;DHT22;10602;48.000;9.654;2023-04-03T16:18:04;5.20;1.00
20885;DHT22;10602;48.000;9.654;2023-04-03T16:20:32;5.20;1.00
20885;DHT22;10602;48.000;9.654;2023-04-03T16:23:01;5.20;1.00
20885;DHT22;10602;48.000;9.654;2023-04-03T16:25:29;5.20;1.00
20885;DHT22;10602;48.000;9.654;2023-04-03T16:27:57;5.30;1.00
20885;DHT22;10602;48.000;9.654;2023-04-03T16:30:25;5.20;1.00
20885;DHT22;10602;48.000;9.654;2023-04-03T16:32:52;5.20;1.00
20885;DHT22;10602;48.000;9.654;2023-04-03T16:35:22;5.10;1.00
20885;DHT22;10602;48.000;9.654;2023-04-03T16:37:49;5.10;1.00
20885;DHT22;10602;48.000;9.654;2023-04-03T16:40:17;5.10;1.00
20885;DHT22;10602;48.000;9.654;2023-04-03T16:42:44;4.90;1.00
20885;DHT22;10602;48.000;9.654;2023-04-03T16:45:12;4.90;1.00
20885;DHT22;10602;48.000;9.654;2023-04-03T16:47:41;4.80;1.00
20885;DHT22;10602;48.000;9.654;2023-04-03T16:50:09;4.80;1.00
20885;DHT22;10602;48.000;9.654;2023-04-03T16:52:36;4.80;1.00
20885;DHT22;10602;48.000;9.654;2023-04-03T16:55:05;4.70;1.00
20885;DHT22;10602;48.000;9.654;2023-04-03T16:57:32;4.60;1.00
20885;DHT22;10602;48.000;9.654;2023-04-03T17:00:00;4.50;1.00
20885;DHT22;10602;48.000;9.654;2023-04-03T17:02:27;4.40;1.00
20885;DHT22;10602;48.000;9.654;2023-04-03T17:04:55;4.40;1.00
20885;DHT22;10602;48.000;9.654;2023-04-03T17:07:24;4.40;1.00
20885;DHT22;10602;48.000;9.654;2023-04-03T17:09:52;4.30;1.00
20885;DHT22;10602;48.000;9.654;2023-04-03T17:12:20;4.30;1.00
20885;DHT22;10602;48.000;9.654;2023-04-03T17:14:48;4.20;1.00
20885;DHT22;10602;48.000;9.654;2023-04-03T17:17:18;4.20;1.00
20885;DHT22;10602;48.000;9.654;2023-04-03T17:19:45;4.10;1.00
20885;DHT22;10602;48.000;9.654;2023-04-03T17:22:13;4.10;1.00
20885;DHT22;10602;48.000;9.654;2023-04-03T17:24:42;4.10;1.00
20885;DHT22;10602;48.000;9.654;2023-04-03T17:27:10;4.10;1.00
20885;DHT22;10602;48.000;9.654;2023-04-03T17:29:37;4.00;1.00
20885;DHT22;10602;48.000;9.654;2023-04-03T17:32:05;4.00;1.00
20885;DHT22;10602;48.000;9.654;2023-04-03T17:34:32;4.00;1.00
20885;DHT22;10602;48.000;9.654;2023-04-03T17:37:02;4.00;1.00
20885;DHT22;10602;48.000;9.654;2023-04-03T17:39:29;3.90;1.00
20885;DHT22;10602;48.000;9.654;2023-04-03T17:41:57;3.90;1.00
20885;DHT22;10602;48.000;9.654;2023-04-03T17:44:25;3.80;1.00
20885;DHT22;10602;48.000;9.654;2023-04-03T17:46:53;3.80;4.40
20885;DHT22;10602;48.000;9.654;2023-04-03T17:49:21;3.80;34.10
20885;DHT22;10602;48.000;9.654;2023-04-03T17:51:48;3.70;27.50
20885;DHT22;10602;48.000;9.654;2023-04-03T17:54:16;3.70;33.00
20885;DHT22;10602;48.000;9.654;2023-04-03T17:56:43;3.70;7.70
20885;DHT22;10602;48.000;9.654;2023-04-03T17:59:14;3.70;1.00
20885;DHT22;10602;48.000;9.654;2023-04-03T18:01:44;3.70;1.00
20885;DHT22;10602;48.000;9.654;2023-04-03T18:04:13;3.70;1.00
20885;DHT22;10602;48.000;9.654;2023-04-03T18:06:46;3.60;1.00
20885;DHT22;10602;48.000;9.654;2023-04-03T18:09:26;3.60;1.00